Time;durP1;ratioP1;P1;durP2;ratioP2;P2;SDS_P1;SDS_P2;PMS_P1;PMS_P2;Temp;Humidity;BMP_temperature;BMP_pressure;BME280_temperature;BME280_humidity;BME280_pressure;Samples;Min_cycle;Max_cycle;Signal;HPM_P1;HPM_P2
2022/07/11 00:00:14;;;;;;;7.80;6.23;;;16.20;99.90;;;;;;5001529;28;20948;-76
2022/07/11 00:02:41;;;;;;;6.37;5.77;;;16.30;99.90;;;;;;5000114;28;20452;-76
2022/07/11 00:05:09;;;;;;;10.63;6.57;;;16.30;99.90;;;;;;5003121;28;20483;-76
2022/07/11 00:07:36;;;;;;;8.37;6.70;;;16.20;99.90;;;;;;4999759;28;20451;-76
2022/07/11 00:10:03;;;;;;;7.13;5.93;;;16.30;99.90;;;;;;5009758;28;20462;-76
2022/07/11 00:12:31;;;;;;;6.30;5.70;;;16.30;99.90;;;;;;5003198;28;20438;-77
2022/07/11 00:14:58;;;;;;;7.97;6.27;;;16.30;99.90;;;;;;5003097;28;20462;-76
2022/07/11 00:17:24;;;;;;;7.33;6.17;;;16.30;99.90;;;;;;5001227;28;20434;-76
2022/07/11 00:19:51;;;;;;;7.27;6.60;;;16.30;99.90;;;;;;4999315;28;20488;-76
2022/07/11 00:22:18;;;;;;;6.47;5.70;;;16.30;99.90;;;;;;5000455;28;20482;-76
2022/07/11 00:24:44;;;;;;;9.47;6.10;;;16.30;99.90;;;;;;5002028;28;20970;-75
2022/07/11 00:27:12;;;;;;;6.47;5.87;;;16.40;99.90;;;;;;5001543;28;20421;-76
2022/07/11 00:29:40;;;;;;;6.23;5.70;;;16.30;99.90;;;;;;4999141;28;20433;-76
2022/07/11 00:32:08;;;;;;;6.77;5.40;;;16.40;99.90;;;;;;5004424;28;20450;-76
2022/07/11 00:34:34;;;;;;;6.67;5.97;;;16.40;99.90;;;;;;5003082;28;20417;-76
2022/07/11 00:37:01;;;;;;;8.83;5.53;;;16.40;99.90;;;;;;5003108;28;20470;-75
2022/07/11 00:39:28;;;;;;;7.10;5.93;;;16.40;99.90;;;;;;4998651;28;20479;-76
2022/07/11 00:41:54;;;;;;;9.10;5.70;;;16.40;99.90;;;;;;5003957;28;20460;-76
2022/07/11 00:44:21;;;;;;;5.47;5.07;;;16.30;99.90;;;;;;4996741;28;20521;-76
2022/07/11 00:46:49;;;;;;;6.70;5.63;;;16.30;99.90;;;;;;5000769;28;20805;-76
2022/07/11 00:49:16;;;;;;;6.07;5.47;;;16.30;99.90;;;;;;5004654;28;20429;-76
2022/07/11 00:51:43;;;;;;;10.03;5.43;;;16.30;99.90;;;;;;5000723;28;20484;-76
2022/07/11 00:54:11;;;;;;;6.10;5.60;;;16.30;99.90;;;;;;5002505;28;20471;-76
2022/07/11 00:56:38;;;;;;;5.77;5.27;;;16.30;99.90;;;;;;5000342;28;20886;-76
2022/07/11 00:59:05;;;;;;;5.70;5.20;;;16.30;99.90;;;;;;5001502;28;21195;-76
2022/07/11 01:01:33;;;;;;;6.37;5.30;;;16.30;99.90;;;;;;5000274;28;20429;-76
2022/07/11 01:04:03;;;;;;;5.33;4.83;;;16.30;99.90;;;;;;5003777;28;20489;-76
2022/07/11 01:06:30;;;;;;;13.60;5.37;;;16.30;99.90;;;;;;5004154;28;20445;-76
2022/07/11 01:08:56;;;;;;;6.27;5.60;;;16.30;99.90;;;;;;4996644;28;20838;-76
2022/07/11 01:11:23;;;;;;;5.40;5.00;;;16.30;99.90;;;;;;5000416;28;20434;-76
2022/07/11 01:13:50;;;;;;;8.73;5.17;;;16.30;99.90;;;;;;5000321;28;20444;-76
2022/07/11 01:16:18;;;;;;;7.47;4.97;;;16.30;99.90;;;;;;5002716;28;20472;-77
2022/07/11 01:18:47;;;;;;;6.10;5.10;;;16.30;99.90;;;;;;5000146;28;20437;-77
2022/07/11 01:21:23;;;;;;;5.60;5.10;;;16.30;99.90;;;;;;4998804;28;20870;-77
2022/07/11 01:23:52;;;;;;;6.03;4.80;;;16.40;99.90;;;;;;5002850;28;20461;-76
2022/07/11 01:26:20;;;;;;;6.83;5.13;;;16.40;99.90;;;;;;5001452;28;20528;-77
2022/07/11 01:28:47;;;;;;;5.47;4.97;;;16.40;99.90;;;;;;5004129;28;20571;-77
2022/07/11 01:31:14;;;;;;;8.00;5.17;;;16.40;99.90;;;;;;4997561;28;20854;-77
2022/07/11 01:33:41;;;;;;;4.70;4.37;;;16.40;99.90;;;;;;5003780;28;20418;-77
2022/07/11 01:36:08;;;;;;;6.53;4.70;;;16.40;99.90;;;;;;4998707;28;20532;-76
2022/07/11 01:38:35;;;;;;;6.03;5.10;;;16.40;99.90;;;;;;5003482;28;20428;-77
2022/07/11 01:41:03;;;;;;;5.07;4.67;;;16.40;99.90;;;;;;4996068;28;20858;-77
2022/07/11 01:43:30;;;;;;;5.87;5.20;;;16.40;99.90;;;;;;4999846;28;20466;-76
2022/07/11 01:45:57;;;;;;;7.73;4.93;;;16.50;99.90;;;;;;5009130;28;20860;-77
2022/07/11 01:48:24;;;;;;;5.10;4.70;;;16.50;99.90;;;;;;5009370;28;20428;-77
2022/07/11 01:50:50;;;;;;;5.40;4.87;;;16.50;99.90;;;;;;4997713;28;20755;-77
2022/07/11 01:53:17;;;;;;;6.23;5.63;;;16.50;99.90;;;;;;5009598;28;20838;-77
2022/07/11 01:55:44;;;;;;;5.63;4.87;;;16.50;99.90;;;;;;4997146;28;21006;-77
2022/07/11 01:58:12;;;;;;;6.43;5.10;;;16.50;99.90;;;;;;5002880;28;20429;-77
2022/07/11 02:00:39;;;;;;;7.57;5.77;;;16.50;99.90;;;;;;5004283;28;20470;-76
2022/07/11 02:03:06;;;;;;;7.80;6.57;;;16.50;99.90;;;;;;5003670;28;20438;-77
2022/07/11 02:05:32;;;;;;;6.67;5.80;;;16.50;99.90;;;;;;4992151;28;20961;-76
2022/07/11 02:08:14;;;;;;;5.90;5.30;;;16.50;99.90;;;;;;5005917;28;20458;-76
2022/07/11 02:10:45;;;;;;;10.23;6.20;;;16.40;99.90;;;;;;5002443;28;20479;-76
2022/07/11 02:13:15;;;;;;;6.97;5.90;;;16.50;99.90;;;;;;5001074;28;20464;-76
2022/07/11 02:15:43;;;;;;;12.07;5.53;;;16.50;99.90;;;;;;5004104;28;20444;-76
2022/07/11 02:18:11;;;;;;;12.47;6.07;;;16.50;99.90;;;;;;5001765;28;20483;-76
2022/07/11 02:20:37;;;;;;;10.30;5.90;;;16.50;99.90;;;;;;4997037;28;21005;-77
2022/07/11 02:23:05;;;;;;;9.67;5.80;;;16.50;99.90;;;;;;4999660;28;20437;-77
2022/07/11 02:25:32;;;;;;;11.33;6.37;;;16.50;99.90;;;;;;5001567;28;20478;-77
2022/07/11 02:27:59;;;;;;;10.03;5.33;;;16.60;99.90;;;;;;5004612;28;20451;-77
2022/07/11 02:30:27;;;;;;;14.60;6.80;;;16.50;99.90;;;;;;4995482;28;20434;-77
2022/07/11 02:32:54;;;;;;;7.33;6.00;;;16.40;99.90;;;;;;4993710;28;20451;-76
2022/07/11 02:35:21;;;;;;;6.93;6.20;;;16.40;99.90;;;;;;5001907;28;20499;-77
2022/07/11 02:37:48;;;;;;;9.20;6.30;;;16.40;99.90;;;;;;4999579;28;20480;-77
2022/07/11 02:40:15;;;;;;;9.40;6.20;;;16.30;99.90;;;;;;5000500;28;20931;-77
2022/07/11 02:42:42;;;;;;;6.40;5.83;;;16.30;99.90;;;;;;5001197;28;20849;-76
2022/07/11 02:45:09;;;;;;;6.90;6.20;;;16.20;99.90;;;;;;5007434;28;20495;-77
2022/07/11 02:47:39;;;;;;;8.80;6.50;;;16.20;99.90;;;;;;5000331;28;20433;-77
2022/07/11 02:50:08;;;;;;;8.33;6.27;;;16.20;99.90;;;;;;5007323;28;20524;-77
2022/07/11 02:52:34;;;;;;;7.30;6.70;;;16.10;99.90;;;;;;4992957;28;21001;-77
2022/07/11 02:55:01;;;;;;;8.53;6.90;;;16.10;99.90;;;;;;5003898;28;20495;-76
2022/07/11 02:57:28;;;;;;;11.30;7.30;;;16.10;99.90;;;;;;5006147;28;20458;-77
2022/07/11 02:59:55;;;;;;;7.30;6.50;;;16.10;99.90;;;;;;5004202;28;20800;-77
2022/07/11 03:02:22;;;;;;;9.40;7.50;;;16.10;99.90;;;;;;4994840;28;20832;-77
2022/07/11 03:04:51;;;;;;;7.23;6.53;;;16.10;99.90;;;;;;5005880;28;20453;-77
2022/07/11 03:07:18;;;;;;;11.37;7.87;;;16.10;99.90;;;;;;4995905;28;20437;-76
2022/07/11 03:09:44;;;;;;;7.70;6.70;;;16.10;99.90;;;;;;4997935;28;22161;-77
2022/07/11 03:12:11;;;;;;;8.73;6.40;;;16.10;99.90;;;;;;5002198;28;21171;-77
2022/07/11 03:14:38;;;;;;;8.33;6.93;;;16.10;99.90;;;;;;5005558;28;20436;-77
2022/07/11 03:17:05;;;;;;;8.47;7.30;;;16.10;99.90;;;;;;5005399;28;20863;-77
2022/07/11 03:19:31;;;;;;;14.10;7.00;;;16.20;99.90;;;;;;4999767;28;20523;-77
2022/07/11 03:21:59;;;;;;;10.97;6.73;;;16.10;99.90;;;;;;4993939;28;20874;-77
2022/07/11 03:24:26;;;;;;;9.20;6.60;;;16.20;99.90;;;;;;4997109;28;20456;-77
2022/07/11 03:26:53;;;;;;;12.40;7.00;;;16.20;99.90;;;;;;4995839;28;21036;-77
2022/07/11 03:29:19;;;;;;;12.30;6.20;;;16.20;99.90;;;;;;5004856;28;20483;-77
2022/07/11 03:31:46;;;;;;;10.63;6.47;;;16.20;99.90;;;;;;5009704;28;20434;-76
2022/07/11 03:34:13;;;;;;;7.10;6.40;;;16.20;99.90;;;;;;4997998;28;20462;-77
2022/07/11 03:36:39;;;;;;;6.60;6.00;;;16.20;99.90;;;;;;4997215;28;20511;-77
2022/07/11 03:39:07;;;;;;;9.57;7.03;;;16.20;99.90;;;;;;4997231;28;20947;-77
2022/07/11 03:41:34;;;;;;;9.20;7.10;;;16.20;99.90;;;;;;5008127;28;20429;-77
2022/07/11 03:44:01;;;;;;;8.70;7.17;;;16.20;99.90;;;;;;5003666;28;20460;-77
2022/07/11 03:46:27;;;;;;;7.23;6.53;;;16.20;99.90;;;;;;5007081;28;20508;-77
2022/07/11 03:48:54;;;;;;;8.13;7.13;;;16.20;99.90;;;;;;5005882;28;20859;-77
2022/07/11 03:51:21;;;;;;;10.47;6.77;;;16.20;99.90;;;;;;5007400;28;20496;-77
2022/07/11 03:53:47;;;;;;;8.13;7.27;;;16.20;99.90;;;;;;5000186;28;20799;-76
2022/07/11 03:56:20;;;;;;;6.73;6.13;;;16.20;99.90;;;;;;4998817;28;21047;-77
2022/07/11 03:58:47;;;;;;;11.20;6.63;;;16.20;99.90;;;;;;5009498;28;20425;-77
2022/07/11 04:01:13;;;;;;;7.33;6.50;;;16.20;99.90;;;;;;5007387;28;20429;-77
2022/07/11 04:03:40;;;;;;;8.10;6.90;;;16.20;99.90;;;;;;5003383;28;20517;-77
2022/07/11 04:06:06;;;;;;;7.20;6.50;;;16.20;99.90;;;;;;5008675;28;20448;-77
2022/07/11 04:08:33;;;;;;;12.90;7.30;;;16.20;99.90;;;;;;5003232;28;20429;-77
2022/07/11 04:11:00;;;;;;;8.13;7.30;;;16.20;99.90;;;;;;5008620;28;20461;-77
2022/07/11 04:13:28;;;;;;;13.50;7.30;;;16.20;99.90;;;;;;4997410;28;20493;-77
2022/07/11 04:15:54;;;;;;;6.70;5.63;;;16.20;99.90;;;;;;5006233;28;20474;-74
2022/07/11 04:18:21;;;;;;;8.60;6.47;;;16.20;99.90;;;;;;4997115;28;20429;-73
2022/07/11 04:20:49;;;;;;;7.60;5.60;;;16.30;99.90;;;;;;4996509;28;20930;-73
2022/07/11 04:23:15;;;;;;;5.50;4.90;;;16.40;99.90;;;;;;5006431;28;20458;-73
2022/07/11 04:25:42;;;;;;;6.33;5.73;;;16.60;99.90;;;;;;5001332;28;20466;-73
2022/07/11 04:28:09;;;;;;;6.47;5.07;;;16.80;99.90;;;;;;4996395;28;20956;-74
2022/07/11 04:30:37;;;;;;;9.17;6.57;;;17.00;99.90;;;;;;5008754;28;20425;-73
2022/07/11 04:33:04;;;;;;;7.10;6.37;;;17.10;99.90;;;;;;5007204;28;20508;-74
2022/07/11 04:35:31;;;;;;;6.50;5.80;;;17.20;99.90;;;;;;5003620;28;20445;-73
2022/07/11 04:37:58;;;;;;;12.70;5.10;;;17.20;99.90;;;;;;5002007;28;20450;-74
2022/07/11 04:40:24;;;;;;;6.03;5.53;;;17.30;99.90;;;;;;4996913;28;20541;-74
2022/07/11 04:42:51;;;;;;;10.53;6.23;;;17.30;99.90;;;;;;4996197;28;20434;-74
2022/07/11 04:45:18;;;;;;;11.80;6.63;;;17.30;99.90;;;;;;4993615;28;20551;-73
2022/07/11 04:47:46;;;;;;;5.97;4.77;;;17.40;99.90;;;;;;4999764;28;20458;-73
2022/07/11 04:50:13;;;;;;;5.67;4.57;;;17.40;99.90;;;;;;4999089;28;20447;-74
2022/07/11 04:52:41;;;;;;;5.60;4.93;;;17.40;99.90;;;;;;5007540;28;20421;-74
2022/07/11 04:55:09;;;;;;;14.37;6.70;;;17.60;99.90;;;;;;4994181;28;20463;-74
2022/07/11 04:57:35;;;;;;;9.00;5.37;;;17.60;99.90;;;;;;5007144;28;20997;-74
2022/07/11 05:00:03;;;;;;;6.83;6.17;;;17.70;99.90;;;;;;5007596;28;20943;-74
2022/07/11 05:02:30;;;;;;;10.67;6.97;;;17.80;99.90;;;;;;4999435;28;20877;-74
2022/07/11 05:04:58;;;;;;;10.13;6.17;;;17.90;99.90;;;;;;4997358;28;20474;-74
2022/07/11 05:07:24;;;;;;;7.80;6.90;;;17.90;99.90;;;;;;5004995;28;20424;-73
2022/07/11 05:09:51;;;;;;;12.77;7.00;;;17.80;99.90;;;;;;5000697;28;20500;-73
2022/07/11 05:12:20;;;;;;;11.53;6.37;;;17.80;99.90;;;;;;5003376;28;20430;-72
2022/07/11 05:14:46;;;;;;;7.43;6.50;;;17.70;99.90;;;;;;4999718;28;20544;-73
2022/07/11 05:17:13;;;;;;;10.90;6.53;;;17.70;99.90;;;;;;5004838;28;20485;-73
2022/07/11 05:19:39;;;;;;;8.93;5.73;;;17.70;99.90;;;;;;4997455;28;20831;-72
2022/07/11 05:22:07;;;;;;;10.90;6.43;;;17.70;99.90;;;;;;4995157;28;20459;-72
2022/07/11 05:24:34;;;;;;;12.30;6.27;;;17.60;99.90;;;;;;5004500;28;20876;-72
2022/07/11 05:27:01;;;;;;;7.93;5.70;;;17.60;99.90;;;;;;5007545;28;20478;-72
2022/07/11 05:29:28;;;;;;;8.80;7.13;;;17.60;99.90;;;;;;5002959;28;20451;-72
2022/07/11 05:31:54;;;;;;;7.03;5.57;;;17.60;99.90;;;;;;4999901;28;20458;-72
2022/07/11 05:34:21;;;;;;;11.77;5.80;;;17.70;99.90;;;;;;5004921;28;20876;-72
2022/07/11 05:36:48;;;;;;;9.23;5.40;;;17.70;99.90;;;;;;4992714;28;20496;-73
2022/07/11 05:39:16;;;;;;;8.87;7.03;;;17.80;99.90;;;;;;4993088;28;20463;-72
2022/07/11 05:41:43;;;;;;;7.20;5.00;;;17.90;99.90;;;;;;5008539;28;20479;-72
2022/07/11 05:44:09;;;;;;;9.80;5.87;;;18.00;99.90;;;;;;5007860;28;20546;-72
2022/07/11 05:46:39;;;;;;;5.20;4.70;;;18.10;99.90;;;;;;4996904;28;20864;-72
2022/07/11 05:49:06;;;;;;;5.93;5.30;;;18.20;99.90;;;;;;4997202;28;20513;-72
2022/07/11 05:51:33;;;;;;;5.80;4.93;;;18.40;99.90;;;;;;4992086;28;20422;-72
2022/07/11 05:53:59;;;;;;;4.97;4.00;;;18.60;99.90;;;;;;4991792;28;20530;-72
2022/07/11 05:56:27;;;;;;;5.23;4.53;;;18.90;99.90;;;;;;5001590;28;20540;-72
2022/07/11 05:58:54;;;;;;;10.07;5.00;;;19.00;99.90;;;;;;4981690;28;20885;-72
2022/07/11 06:01:22;;;;;;;4.97;4.57;;;19.10;99.90;;;;;;4995507;28;20447;-72
2022/07/11 06:03:48;;;;;;;7.90;4.50;;;19.20;99.90;;;;;;5000758;28;20488;-71
2022/07/11 06:06:16;;;;;;;7.63;4.53;;;19.30;99.90;;;;;;4997509;28;20518;-71
2022/07/11 06:08:43;;;;;;;9.67;4.80;;;19.40;99.90;;;;;;5005989;28;20517;-72
2022/07/11 06:11:11;;;;;;;5.70;5.10;;;19.50;99.90;;;;;;4991048;28;20824;-71
2022/07/11 06:13:39;;;;;;;6.17;4.47;;;19.60;99.90;;;;;;4992032;28;20541;-72
2022/07/11 06:16:07;;;;;;;5.37;4.80;;;19.70;99.90;;;;;;4996585;28;21051;-71
2022/07/11 06:18:34;;;;;;;7.53;5.03;;;19.80;99.90;;;;;;4999508;28;20514;-71
2022/07/11 06:21:00;;;;;;;8.43;5.43;;;19.90;99.90;;;;;;4995059;28;20467;-71
2022/07/11 06:23:27;;;;;;;6.40;4.40;;;20.00;99.90;;;;;;4993646;28;20462;-72
2022/07/11 06:25:54;;;;;;;5.90;4.97;;;20.10;99.90;;;;;;4990668;28;20486;-74
2022/07/11 06:28:21;;;;;;;7.00;5.00;;;20.10;99.90;;;;;;4997901;28;20551;-74
2022/07/11 06:30:49;;;;;;;7.37;5.30;;;20.10;99.90;;;;;;4993688;28;21233;-74
2022/07/11 06:33:16;;;;;;;6.27;4.90;;;20.20;99.90;;;;;;4993112;28;22079;-74
2022/07/11 06:35:43;;;;;;;6.97;4.90;;;20.30;99.90;;;;;;4994604;28;20478;-74
2022/07/11 06:38:09;;;;;;;9.30;4.80;;;20.40;99.90;;;;;;5007882;28;20477;-74
2022/07/11 06:40:36;;;;;;;5.87;4.63;;;20.50;99.90;;;;;;4993443;28;20531;-74
2022/07/11 06:43:04;;;;;;;5.17;4.20;;;20.60;99.90;;;;;;4999505;28;20950;-74
2022/07/11 06:45:31;;;;;;;5.00;4.20;;;20.80;99.90;;;;;;4995793;28;20523;-74
2022/07/11 06:47:59;;;;;;;7.67;4.43;;;21.00;99.90;;;;;;5003184;28;20462;-73
2022/07/11 06:50:25;;;;;;;4.57;4.17;;;21.20;99.90;;;;;;4995984;28;20447;-74
2022/07/11 06:52:52;;;;;;;5.10;4.10;;;21.40;99.90;;;;;;4992416;28;20446;-74
2022/07/11 06:55:19;;;;;;;4.60;3.80;;;21.40;99.90;;;;;;4993484;28;20474;-74
2022/07/11 06:57:45;;;;;;;4.60;4.20;;;21.40;99.90;;;;;;5004668;28;20508;-74
2022/07/11 07:00:13;;;;;;;5.00;4.00;;;21.40;99.90;;;;;;4993176;28;20451;-74
2022/07/11 07:02:39;;;;;;;4.17;3.63;;;21.40;99.90;;;;;;4994701;28;20459;-73
2022/07/11 07:05:09;;;;;;;4.67;4.27;;;21.50;99.90;;;;;;5002522;28;20614;-74
2022/07/11 07:07:35;;;;;;;5.40;4.53;;;21.40;99.90;;;;;;5001085;28;20457;-74
2022/07/11 07:10:02;;;;;;;5.73;4.07;;;21.50;99.90;;;;;;4995298;28;20463;-76
2022/07/11 07:12:29;;;;;;;6.03;4.13;;;21.50;99.90;;;;;;5000123;28;20950;-77
2022/07/11 07:14:56;;;;;;;3.73;3.43;;;21.50;99.90;;;;;;4998058;28;20430;-75
2022/07/11 07:17:23;;;;;;;5.57;3.70;;;21.70;99.90;;;;;;4995337;28;20912;-75
2022/07/11 07:19:49;;;;;;;4.70;3.43;;;21.70;99.90;;;;;;4993505;28;20463;-76
2022/07/11 07:22:17;;;;;;;6.70;4.00;;;21.70;99.90;;;;;;4995820;28;21196;-78
2022/07/11 07:24:45;;;;;;;4.47;3.67;;;21.60;99.90;;;;;;4999041;28;20470;-76
2022/07/11 07:27:12;;;;;;;5.23;4.73;;;21.70;99.90;;;;;;4995004;28;20921;-77
2022/07/11 07:29:39;;;;;;;7.60;4.10;;;21.70;99.90;;;;;;4998654;28;20466;-76
2022/07/11 07:32:06;;;;;;;3.70;3.37;;;21.80;99.90;;;;;;5005110;28;21025;-76
2022/07/11 07:34:33;;;;;;;3.70;3.40;;;21.60;99.90;;;;;;4995700;28;20453;-76
2022/07/11 07:36:59;;;;;;;5.30;3.70;;;21.50;99.90;;;;;;4994350;28;20475;-75
2022/07/11 07:39:27;;;;;;;5.10;4.17;;;21.30;99.90;;;;;;4994952;28;20451;-75
2022/07/11 07:41:54;;;;;;;4.67;3.80;;;21.20;99.90;;;;;;4999943;28;20446;-74
2022/07/11 07:44:21;;;;;;;8.87;4.07;;;21.10;99.90;;;;;;4997573;28;20513;-75
2022/07/11 07:46:47;;;;;;;3.60;3.30;;;21.10;99.90;;;;;;5012629;28;20625;-74
2022/07/11 07:49:14;;;;;;;3.47;3.17;;;21.00;99.90;;;;;;4993754;28;20466;-75
2022/07/11 07:51:40;;;;;;;5.53;3.80;;;21.00;99.90;;;;;;5003509;28;20455;-75
2022/07/11 07:54:07;;;;;;;3.40;3.10;;;21.00;99.90;;;;;;4998762;28;20467;-75
2022/07/11 07:56:35;;;;;;;2.90;2.60;;;21.10;99.90;;;;;;5005186;28;20525;-74
2022/07/11 07:59:02;;;;;;;2.83;2.70;;;21.20;99.90;;;;;;5008932;28;20989;-75
2022/07/11 08:01:36;;;;;;;3.73;2.93;;;21.30;99.90;;;;;;4994042;28;20851;-75
2022/07/11 08:04:04;;;;;;;2.90;2.70;;;21.50;99.90;;;;;;5002833;28;20454;-76
2022/07/11 08:06:31;;;;;;;3.50;3.27;;;21.60;99.90;;;;;;5001331;28;20522;-75
2022/07/11 08:08:58;;;;;;;7.47;2.97;;;21.60;99.90;;;;;;4994221;28;20463;-75
2022/07/11 08:11:24;;;;;;;3.40;3.10;;;21.50;99.90;;;;;;4997242;28;20451;-75
2022/07/11 08:13:52;;;;;;;6.27;4.00;;;21.50;99.90;;;;;;5011140;28;20458;-74
2022/07/11 08:16:19;;;;;;;4.03;3.60;;;21.40;99.90;;;;;;5006471;28;21030;-75
2022/07/11 08:18:47;;;;;;;5.30;3.70;;;21.40;99.90;;;;;;4992471;28;20463;-74
2022/07/11 08:21:13;;;;;;;5.40;4.50;;;21.30;99.90;;;;;;4996705;28;20460;-74
2022/07/11 08:23:40;;;;;;;7.63;4.73;;;21.20;99.90;;;;;;5003896;28;20451;-74
2022/07/11 08:26:07;;;;;;;6.10;4.77;;;21.20;99.90;;;;;;4997947;28;20498;-75
2022/07/11 08:28:34;;;;;;;4.80;4.30;;;21.10;99.90;;;;;;4999454;28;20458;-74
2022/07/11 08:31:02;;;;;;;7.10;4.97;;;21.10;99.90;;;;;;4995690;28;20510;-74
2022/07/11 08:33:28;;;;;;;5.13;4.67;;;21.10;99.90;;;;;;4999388;28;20890;-74
2022/07/11 08:35:55;;;;;;;5.40;4.90;;;21.00;99.90;;;;;;4998135;28;20466;-75
2022/07/11 08:38:22;;;;;;;5.13;4.60;;;21.00;99.90;;;;;;4991679;28;20456;-74
2022/07/11 08:40:50;;;;;;;6.23;4.37;;;20.90;99.90;;;;;;4999739;28;20909;-75
2022/07/11 08:43:18;;;;;;;7.33;4.63;;;20.90;99.90;;;;;;5003963;28;20848;-74
2022/07/11 08:45:45;;;;;;;4.93;4.37;;;20.90;99.90;;;;;;4994991;28;20553;-74
2022/07/11 08:48:14;;;;;;;4.67;4.00;;;20.90;99.90;;;;;;4994814;28;20521;-74
2022/07/11 08:50:42;;;;;;;4.47;4.07;;;21.20;99.90;;;;;;4999897;28;20555;-74
2022/07/11 08:53:11;;;;;;;4.90;4.50;;;21.40;99.90;;;;;;5005600;28;20461;-74
2022/07/11 08:55:37;;;;;;;4.77;4.00;;;21.70;99.90;;;;;;5002089;28;20846;-74
2022/07/11 08:58:05;;;;;;;5.07;3.53;;;21.90;99.90;;;;;;4998832;28;20455;-74
2022/07/11 09:00:31;;;;;;;5.57;3.90;;;22.00;99.90;;;;;;4992317;28;20459;-74
2022/07/11 09:02:59;;;;;;;3.93;3.23;;;22.10;99.90;;;;;;5002669;28;21115;-74
2022/07/11 09:05:28;;;;;;;3.30;3.00;;;22.20;99.90;;;;;;5007494;28;20490;-74
2022/07/11 09:07:55;;;;;;;4.10;3.00;;;22.10;99.90;;;;;;5008486;28;20457;-73
2022/07/11 09:10:21;;;;;;;4.90;3.30;;;22.10;99.90;;;;;;4992362;28;20451;-74
2022/07/11 09:13:02;;;;;;;3.50;3.20;;;22.10;99.90;;;;;;4997675;28;20463;-74
2022/07/11 09:15:33;;;;;;;2.90;2.60;;;22.30;99.90;;;;;;4994581;28;21010;-74
2022/07/11 09:18:00;;;;;;;5.60;2.90;;;22.50;99.90;;;;;;5007025;28;20535;-74
2022/07/11 09:25:19;;;;;;;2.80;2.60;;;22.70;99.90;;;;;;4994421;28;20951;-74
2022/07/11 09:26:06;;;;;;;4.20;2.73;;;23.00;99.90;;;;;;4991448;28;20509;-73
2022/07/11 09:28:33;;;;;;;3.20;2.90;;;23.10;99.90;;;;;;4997783;28;20451;-73
2022/07/11 09:31:00;;;;;;;3.60;2.53;;;23.30;99.90;;;;;;4999511;28;20487;-74
2022/07/11 09:33:26;;;;;;;4.00;3.00;;;23.70;99.90;;;;;;4992670;28;20455;-74
2022/07/11 09:35:55;;;;;;;5.30;3.37;;;24.20;99.90;;;;;;5003339;28;20466;-74
2022/07/11 09:38:22;;;;;;;3.50;2.20;;;24.30;99.90;;;;;;5004444;28;20569;-73
2022/07/11 09:40:49;;;;;;;5.13;2.40;;;24.80;99.90;;;;;;4994117;28;21039;-74
2022/07/11 09:43:25;;;;;;;2.47;2.27;;;25.20;99.90;;;;;;4994230;28;20557;-74
2022/07/11 09:45:51;;;;;;;2.57;2.30;;;25.60;99.90;;;;;;5006818;28;20482;-74
2022/07/11 09:48:18;;;;;;;5.30;2.80;;;26.00;99.90;;;;;;4993177;28;20487;-73
2022/07/11 09:51:00;;;;;;;2.43;2.23;;;26.10;99.90;;;;;;4991343;28;20875;-74
2022/07/11 09:53:26;;;;;;;2.50;2.30;;;25.80;99.90;;;;;;4997856;28;20453;-74
2022/07/11 09:55:53;;;;;;;4.40;2.27;;;25.40;99.90;;;;;;4994174;28;20550;-73
2022/07/11 09:58:22;;;;;;;5.20;2.30;;;25.30;99.90;;;;;;4962719;28;20896;-73
2022/07/11 10:00:50;;;;;;;2.30;2.20;;;25.30;99.90;;;;;;5017058;28;20461;-75
2022/07/11 10:03:17;;;;;;;2.00;1.90;;;25.40;99.90;;;;;;5016592;28;20465;-74
2022/07/11 10:05:43;;;;;;;2.37;2.20;;;25.40;99.90;;;;;;5015784;28;20536;-74
2022/07/11 10:08:12;;;;;;;1.97;1.87;;;25.40;99.90;;;;;;5013413;28;20458;-74
2022/07/11 10:10:38;;;;;;;3.50;2.17;;;25.50;99.90;;;;;;5010370;28;20459;-74
2022/07/11 10:13:05;;;;;;;2.50;2.40;;;25.80;99.90;;;;;;5019095;28;20453;-75
2022/07/11 10:15:35;;;;;;;4.80;2.63;;;25.90;99.90;;;;;;5017459;28;20478;-75
2022/07/11 10:18:10;;;;;;;5.57;2.40;;;25.70;99.90;;;;;;5025836;28;20507;-74
2022/07/11 10:20:45;;;;;;;3.80;2.30;;;25.50;99.90;;;;;;5007365;28;20463;-74
2022/07/11 10:23:19;;;;;;;2.17;2.03;;;25.40;99.90;;;;;;5014149;28;20488;-74
2022/07/11 10:25:52;;;;;;;2.50;2.30;;;25.20;99.90;;;;;;5017658;28;20481;-74
2022/07/11 10:28:26;;;;;;;2.47;2.37;;;25.10;99.90;;;;;;5027909;28;20457;-74
2022/07/11 10:30:55;;;;;;;2.93;2.50;;;24.70;99.90;;;;;;5023910;28;20540;-74
2022/07/11 10:33:22;;;;;;;5.77;2.80;;;24.60;99.90;;;;;;5009553;28;20872;-74
2022/07/11 10:35:51;;;;;;;2.57;2.33;;;24.70;99.90;;;;;;5023788;28;20561;-74
2022/07/11 10:38:20;;;;;;;3.00;2.63;;;24.80;99.90;;;;;;5014986;28;20848;-74
2022/07/11 10:40:49;;;;;;;3.20;2.20;;;24.80;99.90;;;;;;5013382;28;20457;-74
2022/07/11 10:43:33;;;;;;;3.67;3.10;;;24.80;99.90;;;;;;5020278;28;20497;-74
2022/07/11 10:46:01;;;;;;;4.13;3.30;;;25.10;99.90;;;;;;5010294;28;20492;-74
2022/07/11 10:48:30;;;;;;;3.83;3.53;;;25.10;99.90;;;;;;5018458;28;20458;-74
2022/07/11 10:51:24;;;;;;;5.43;3.50;;;25.00;99.90;;;;;;5012647;28;20503;-74
2022/07/11 10:53:53;;;;;;;4.20;3.50;;;24.70;99.90;;;;;;5020409;28;20536;-74
2022/07/11 10:56:35;;;;;;;4.23;3.70;;;24.30;99.90;;;;;;5015722;28;20498;-74
2022/07/11 10:59:12;;;;;;;4.23;3.00;;;24.30;99.90;;;;;;5013543;28;20457;-74
2022/07/11 11:02:02;;;;;;;4.20;3.40;;;24.20;99.90;;;;;;4970098;28;20482;-72
2022/07/11 11:04:46;;;;;;;4.23;3.73;;;24.00;99.90;;;;;;4999404;28;20516;-74
2022/07/11 11:07:44;;;;;;;3.50;3.30;;;24.00;99.90;;;;;;5000615;28;20481;-73
2022/07/11 11:10:50;;;;;;;3.10;2.90;;;24.10;99.90;;;;;;4924414;29;20458;-72
2022/07/11 11:13:20;;;;;;;3.50;3.27;;;24.30;99.90;;;;;;4997428;28;20464;-74
2022/07/11 11:15:49;;;;;;;3.83;3.50;;;24.50;99.90;;;;;;5005298;28;20845;-73
2022/07/11 11:18:34;;;;;;;3.43;3.23;;;24.60;99.90;;;;;;4990443;28;20519;-73
2022/07/11 11:21:25;;;;;;;3.50;3.30;;;24.70;99.90;;;;;;4991498;28;20529;-73
2022/07/11 11:24:07;;;;;;;4.10;3.30;;;24.70;99.90;;;;;;4977325;28;20554;-74
2022/07/11 11:26:49;;;;;;;4.10;3.40;;;24.70;99.90;;;;;;4994535;28;20494;-75
2022/07/11 11:29:22;;;;;;;3.30;3.00;;;24.70;99.90;;;;;;4992796;28;20466;-74
2022/07/11 11:31:54;;;;;;;5.37;3.20;;;24.70;99.90;;;;;;4997791;28;20455;-73
2022/07/11 11:34:20;;;;;;;2.93;2.73;;;24.90;99.90;;;;;;5003905;28;20453;-74
2022/07/11 11:36:54;;;;;;;2.67;2.57;;;25.30;99.90;;;;;;5001932;28;20994;-75
2022/07/11 11:39:28;;;;;;;6.90;3.33;;;25.40;99.90;;;;;;4992678;28;20451;-75
2022/07/11 11:42:02;;;;;;;3.10;2.90;;;25.40;99.90;;;;;;4987638;28;20458;-74
2022/07/11 11:44:30;;;;;;;2.77;2.40;;;25.30;99.90;;;;;;4993088;28;20450;-75
2022/07/11 11:46:56;;;;;;;4.53;2.60;;;25.20;99.90;;;;;;4997832;28;20637;-75
2022/07/11 11:49:23;;;;;;;3.40;2.60;;;25.10;99.90;;;;;;4993922;28;20497;-76
2022/07/11 11:51:50;;;;;;;2.70;2.50;;;25.30;99.90;;;;;;5004523;28;20458;-76
2022/07/11 11:54:24;;;;;;;3.90;2.90;;;25.40;99.90;;;;;;5000410;28;20484;-77
2022/07/11 11:56:51;;;;;;;2.60;2.50;;;25.50;99.90;;;;;;5007469;28;20525;-75
2022/07/11 11:59:18;;;;;;;4.33;3.00;;;25.30;99.90;;;;;;5000826;28;20955;-75
2022/07/11 12:01:48;;;;;;;3.33;1.83;;;25.30;99.90;;;;;;4998183;28;20455;-75
2022/07/11 12:04:16;;;;;;;2.33;2.13;;;25.30;99.90;;;;;;5003571;28;20971;-75
2022/07/11 12:06:44;;;;;;;2.27;2.07;;;25.30;99.90;;;;;;4995715;28;20491;-76
2022/07/11 12:09:12;;;;;;;2.30;2.10;;;25.40;99.90;;;;;;5002177;28;20462;-76
2022/07/11 12:11:40;;;;;;;2.63;2.27;;;25.30;99.90;;;;;;5007923;28;20506;-75
2022/07/11 12:14:08;;;;;;;3.67;2.37;;;25.20;99.90;;;;;;4999703;28;20478;-75
2022/07/11 12:16:41;;;;;;;3.33;2.57;;;25.10;99.90;;;;;;4994762;28;20518;-75
2022/07/11 12:19:11;;;;;;;2.70;2.50;;;24.80;99.90;;;;;;4999836;28;20481;-74
2022/07/11 12:21:39;;;;;;;110.40;26.73;;;24.80;99.90;;;;;;4998840;28;20477;-73
2022/07/11 12:24:07;;;;;;;7.53;3.00;;;24.60;99.90;;;;;;5003020;28;20454;-74
2022/07/11 12:26:35;;;;;;;3.83;2.53;;;24.60;99.90;;;;;;4994829;28;20483;-74
2022/07/11 12:29:16;;;;;;;5.80;2.60;;;24.70;99.90;;;;;;4992890;28;20967;-74
2022/07/11 12:31:47;;;;;;;2.70;2.50;;;25.00;99.90;;;;;;4996485;28;20514;-73
2022/07/11 12:34:17;;;;;;;7.07;5.93;;;25.00;99.90;;;;;;5000801;28;20462;-73
2022/07/11 12:36:45;;;;;;;97.93;48.70;;;25.00;99.90;;;;;;4995188;28;20463;-75
2022/07/11 12:39:23;;;;;;;5.97;2.83;;;24.80;99.90;;;;;;5007299;28;20485;-75
2022/07/11 12:41:50;;;;;;;2.40;2.20;;;24.70;99.90;;;;;;5004931;28;20451;-75
2022/07/11 12:47:07;;;;;;;2.70;2.30;;;24.70;99.90;;;;;;5006510;28;20501;-75
2022/07/11 12:49:35;;;;;;;2.70;2.50;;;24.70;99.90;;;;;;5001295;28;20535;-75
2022/07/11 12:52:02;;;;;;;3.20;2.90;;;24.70;99.90;;;;;;4997090;28;20200;-75
2022/07/11 12:54:31;;;;;;;2.70;2.10;;;24.60;99.90;;;;;;4996437;28;20462;-75
2022/07/11 12:56:58;;;;;;;4.57;2.60;;;24.70;99.90;;;;;;4999713;28;20553;-74